Airport ID:KTME
Update Time (UTC):24/01/2019 12:56
Wind Speed (Knots):3
Wind Direction (Magnetic):70
Temperature (°C):-0.3
Dew Point (°C):-0.4
Humidity (%):98.9
Altimeter (inHg):30.14
Density Altitude (Feet):
Visibility (Miles):10
Clouds (Hundreds of feet):CLR
Present Weather:
METAR:METAR KTME 241255Z AUTO 07003KT 10SM CLR M00/M00 A3014 RMK AO2

The data displayed is for advisory purposes only and is not to be used for flight planning or operations.

This page is not automatically refreshed. Reload the page to see current data.